Lee's Summit, MO

4:00 PM CDT on August 21, 2014 (GMT -0500)
Lee's Summit Municipal | Change Station
CLOSE
Current Station
Airport
Location: Lee's Summit,
Elevation: 1004 ft
Nearby Weather Stations
Active Advisory: Heat Advisory

Elev 1004 ft 38.96 °N, 94.37 °W | Updated 7 minutes ago

Clear
Clear
93 °F
Feels Like 99 °F
N
16
Wind Variable Wind from South
Gusts 23 mph

Today
High -- | Low -- °F
--% Chance of Precip.
Yesterday
High -- | Low -- °F
Precip. -- in
6:36 AM 8:04 PM
Waning Crescent, 12% visible
Pressure 29.86 in
Visibility 10.0 miles
Clouds Clear
Heat Index 99 °F
Dew Point 70 °F
Humidity 47%
Rainfall 0.00 in
Snow Depth Not available.
UV 7 out of 12
Pollen 11.10 out of 12
Ozone Good
PM2.5 Moderate
Flu Activity Not available.
METAR KLXT 212053Z AUTO 19014G20KT 10SM CLR 34/21 A2989 RMK AO2 SLP110 T03390211 56015

More Conditions Fewer Conditions

Pressure 29.86 in
Visibility 10.0 miles
Clouds Clear
Heat Index 99 °F
Dew Point 70 °F
Humidity 47%
Rainfall 0.00 in
Snow Depth Not available.
UV 7 out of 12
Pollen 11.10 out of 12
Ozone Good
PM2.5 Moderate
Flu Activity Not available.
METAR KLXT 212053Z AUTO 19014G20KT 10SM CLR 34/21 A2989 RMK AO2 SLP110 T03390211 56015

More Conditions Fewer Conditions

10-Day Weather Forecast

Almanac

Astronomy

Aug. 21, 2014 Rise Set
Actual Time 6:36 AM CDT 8:04 PM CDT
Civil Twilight 6:08 AM CDT 8:32 PM CDT
Nautical Twilight 5:34 AM CDT 9:05 PM CDT
Astronomical Twilight 4:59 AM CDT 9:41 PM CDT
Moon 3:08 AM CDT 5:32 PM CDT
Length of Visible Light 14h 23m
Length of Day
13h 27m
Tomorrow will be 2m 20s shorter.
Waning Crescent, 12% of the Moon is Illuminated
Today
Waning Crescent
Aug 25
New
Sep 2
First Quarter
Sep 8
Full
Sep 15
Last Quarter

Today's Extremes

State Highs State Lows

Community

WunderPhotos

Upload Photos

1,746,019 photos uploaded!

WunderBlogs® & News

Nearby

Air Quality

  Air Quality AQ Index Pollutant
Yesterday Moderate
PM2.5
Yesterday Good
OZONE
Current Moderate
PM2.5
Current Good
OZONE
Thursday Good
OZONE
Friday Good
OZONE

Snow Depth

Station Depth Elevation
No new snow has been reported.

Earthquake Activity

City Distance Mag. Time & Date
No recent earthquake activity has been reported nearby.
Minimum magnitude displayed is 2.5.

Coastal Water Temperatures

Place Temperature
No Stations Reporting

Nearby Weather Stations